Time;durP1;ratioP1;P1;durP2;ratioP2;P2;SDS_P1;SDS_P2;PMS_P1;PMS_P2;Temp;Humidity;BMP_temperature;BMP_pressure;BME280_temperature;BME280_humidity;BME280_pressure;Samples;Min_cycle;Max_cycle;Signal;HPM_P1;HPM_P2
2022/02/17 00:00:44;;;;;;;0.40;0.40;;;11.70;99.90;;;;;;4995751;28;20206;-67
2022/02/17 00:03:10;;;;;;;1.83;0.73;;;11.70;99.90;;;;;;5004841;28;20678;-66
2022/02/17 00:05:36;;;;;;;0.63;0.57;;;11.70;99.90;;;;;;5000499;28;20195;-66
2022/02/17 00:08:02;;;;;;;0.60;0.50;;;11.80;99.90;;;;;;5004918;28;20422;-67
2022/02/17 00:10:28;;;;;;;0.50;0.50;;;11.80;99.90;;;;;;4997046;28;20548;-66
2022/02/17 00:12:59;;;;;;;0.60;0.50;;;11.90;99.90;;;;;;4992502;28;20649;-66
2022/02/17 00:15:25;;;;;;;0.43;0.43;;;11.90;99.90;;;;;;5004218;28;20438;-67
2022/02/17 00:17:51;;;;;;;0.87;0.57;;;12.00;99.90;;;;;;5002385;28;20437;-66
2022/02/17 00:20:16;;;;;;;0.50;0.40;;;12.00;99.90;;;;;;4998101;28;20982;-66
2022/02/17 00:22:42;;;;;;;0.43;0.40;;;12.00;99.90;;;;;;4994001;28;20171;-67
2022/02/17 00:25:09;;;;;;;0.50;0.43;;;12.10;99.90;;;;;;4993914;28;20553;-66
2022/02/17 00:27:36;;;;;;;0.70;0.70;;;12.10;99.90;;;;;;4994409;28;20667;-66
2022/02/17 00:30:03;;;;;;;0.73;0.57;;;12.10;99.90;;;;;;4995257;28;20927;-67
2022/02/17 00:32:28;;;;;;;1.80;0.50;;;12.10;99.90;;;;;;4995149;28;20443;-67
2022/02/17 00:34:54;;;;;;;1.43;0.57;;;12.10;99.90;;;;;;5005621;28;20454;-67
2022/02/17 00:37:19;;;;;;;0.50;0.50;;;12.10;99.90;;;;;;5003606;28;20168;-67
2022/02/17 00:39:45;;;;;;;0.50;0.50;;;12.20;99.90;;;;;;5008011;28;20182;-67
2022/02/17 00:42:10;;;;;;;0.80;0.73;;;12.20;99.90;;;;;;5010375;28;20571;-67
2022/02/17 00:44:36;;;;;;;0.60;0.40;;;12.10;99.90;;;;;;5010121;28;20721;-67
2022/02/17 00:47:02;;;;;;;0.40;0.40;;;12.10;99.90;;;;;;5010159;28;20557;-66
2022/02/17 00:49:28;;;;;;;0.50;0.50;;;12.10;99.90;;;;;;5004276;28;20191;-65
2022/02/17 00:51:55;;;;;;;0.40;0.40;;;12.10;99.90;;;;;;4993604;28;20649;-66
2022/02/17 00:54:21;;;;;;;0.77;0.50;;;12.10;99.90;;;;;;4995002;28;20508;-66
2022/02/17 00:56:47;;;;;;;0.70;0.50;;;12.10;99.90;;;;;;4997327;28;20532;-66
2022/02/17 00:59:12;;;;;;;1.13;0.63;;;12.00;99.90;;;;;;5000718;28;20445;-66
2022/02/17 01:01:38;;;;;;;0.50;0.50;;;11.90;99.90;;;;;;5002681;28;20214;-67
2022/02/17 01:04:04;;;;;;;1.53;0.50;;;11.90;99.90;;;;;;4993356;28;20202;-67
2022/02/17 01:06:30;;;;;;;0.70;0.50;;;11.80;99.90;;;;;;4994092;28;20443;-66
2022/02/17 01:08:56;;;;;;;0.60;0.60;;;11.80;99.90;;;;;;4997654;28;20446;-67
2022/02/17 01:11:22;;;;;;;0.83;0.60;;;11.70;99.90;;;;;;4993871;28;20226;-67
2022/02/17 01:13:47;;;;;;;0.90;0.70;;;11.70;99.90;;;;;;5003064;28;20644;-67
2022/02/17 01:16:13;;;;;;;1.20;0.40;;;11.50;99.90;;;;;;4995104;28;20442;-67
2022/02/17 01:18:38;;;;;;;0.50;0.50;;;11.40;99.90;;;;;;4993376;28;20262;-66
2022/02/17 01:21:05;;;;;;;1.20;0.50;;;11.30;99.90;;;;;;4995775;28;20191;-66
2022/02/17 01:23:30;;;;;;;0.50;0.50;;;11.20;99.90;;;;;;5002752;28;20577;-66
2022/02/17 01:25:56;;;;;;;0.77;0.70;;;11.10;99.90;;;;;;5008529;28;20528;-66
2022/02/17 01:28:21;;;;;;;0.70;0.53;;;11.00;99.90;;;;;;5000853;28;20214;-67
2022/02/17 01:30:47;;;;;;;0.60;0.50;;;11.00;99.90;;;;;;4995647;28;20185;-66
2022/02/17 01:33:13;;;;;;;0.63;0.60;;;11.00;99.90;;;;;;5000394;28;20187;-66
2022/02/17 01:35:38;;;;;;;0.67;0.50;;;11.00;99.90;;;;;;4993216;28;20266;-66
2022/02/17 01:38:04;;;;;;;0.87;0.50;;;10.90;99.90;;;;;;5004594;28;20266;-66
2022/02/17 01:40:31;;;;;;;0.67;0.50;;;10.90;99.90;;;;;;4992995;28;20199;-66
2022/02/17 01:42:56;;;;;;;0.90;0.50;;;11.00;99.90;;;;;;4997635;28;20438;-66
2022/02/17 01:45:22;;;;;;;1.47;0.60;;;11.00;99.90;;;;;;5000015;28;20438;-67
2022/02/17 01:47:48;;;;;;;0.97;0.57;;;11.00;99.90;;;;;;4994808;28;20198;-66
2022/02/17 01:50:14;;;;;;;0.50;0.50;;;10.90;99.90;;;;;;4994082;28;20179;-67
2022/02/17 01:52:40;;;;;;;1.43;0.60;;;10.90;99.90;;;;;;4997446;28;20522;-67
2022/02/17 01:55:06;;;;;;;0.60;0.60;;;10.90;99.90;;;;;;4997356;28;20671;-67
2022/02/17 01:57:33;;;;;;;0.50;0.50;;;10.90;99.90;;;;;;5008127;28;20179;-66
2022/02/17 01:59:59;;;;;;;1.03;0.53;;;10.90;99.90;;;;;;5007739;28;20512;-67
2022/02/17 02:02:24;;;;;;;0.50;0.50;;;10.90;99.90;;;;;;4996271;28;20609;-66
2022/02/17 02:04:51;;;;;;;0.50;0.40;;;10.80;99.90;;;;;;4995887;28;20450;-66
2022/02/17 02:07:16;;;;;;;0.50;0.50;;;10.70;99.90;;;;;;4994746;28;20178;-66
2022/02/17 02:09:42;;;;;;;2.10;0.60;;;10.70;99.90;;;;;;4995189;28;20533;-67
2022/02/17 02:12:09;;;;;;;1.43;0.50;;;10.70;99.90;;;;;;4992184;28;20179;-67
2022/02/17 02:14:35;;;;;;;0.57;0.57;;;10.60;99.90;;;;;;4998569;28;20203;-66
2022/02/17 02:17:03;;;;;;;0.60;0.50;;;10.60;99.90;;;;;;4998147;28;20437;-67
2022/02/17 02:19:29;;;;;;;0.80;0.80;;;10.60;99.90;;;;;;5009110;28;20533;-67
2022/02/17 02:21:55;;;;;;;0.57;0.40;;;10.60;99.90;;;;;;5008338;28;20540;-66
2022/02/17 02:24:20;;;;;;;0.80;0.40;;;10.60;99.90;;;;;;4994110;28;20246;-67
2022/02/17 02:26:46;;;;;;;0.47;0.40;;;10.60;99.90;;;;;;5011767;28;20182;-66
2022/02/17 02:29:11;;;;;;;0.60;0.50;;;10.60;99.90;;;;;;5000512;28;20228;-67
2022/02/17 02:31:37;;;;;;;0.60;0.60;;;10.60;99.90;;;;;;5002248;28;20244;-67
2022/02/17 02:34:03;;;;;;;0.50;0.47;;;10.60;99.90;;;;;;4993525;28;20214;-67
2022/02/17 02:36:29;;;;;;;0.50;0.40;;;10.60;99.90;;;;;;4996526;28;20472;-67
2022/02/17 02:38:54;;;;;;;0.57;0.57;;;10.60;99.90;;;;;;5009510;28;20557;-67
2022/02/17 02:41:20;;;;;;;0.50;0.40;;;10.60;99.90;;;;;;4996744;28;20318;-67
2022/02/17 02:43:45;;;;;;;0.93;0.93;;;10.60;99.90;;;;;;4999899;28;20203;-67
2022/02/17 02:46:11;;;;;;;1.90;0.57;;;10.60;99.90;;;;;;4992764;28;20182;-67
2022/02/17 02:48:37;;;;;;;0.60;0.50;;;10.50;99.90;;;;;;4991906;28;20286;-66
2022/02/17 02:51:02;;;;;;;0.50;0.50;;;10.50;99.90;;;;;;4996139;28;20597;-66
2022/02/17 02:53:29;;;;;;;0.50;0.50;;;10.50;99.90;;;;;;4995282;28;20572;-66
2022/02/17 02:55:54;;;;;;;0.60;0.50;;;10.50;99.90;;;;;;5011349;28;20179;-66
2022/02/17 02:58:20;;;;;;;0.63;0.60;;;10.50;99.90;;;;;;5002477;28;20440;-66
2022/02/17 03:00:47;;;;;;;1.37;0.60;;;10.50;99.90;;;;;;5010921;28;20227;-66
2022/02/17 03:03:13;;;;;;;1.23;0.40;;;10.50;99.90;;;;;;4996161;28;20439;-66
2022/02/17 03:05:42;;;;;;;0.87;0.53;;;10.50;99.90;;;;;;4996391;28;20435;-66
2022/02/17 03:08:08;;;;;;;0.57;0.57;;;10.50;99.90;;;;;;5000980;28;20177;-67
2022/02/17 03:10:34;;;;;;;1.47;0.70;;;10.50;99.90;;;;;;5006856;28;20434;-66
2022/02/17 03:13:00;;;;;;;0.70;0.47;;;10.50;99.90;;;;;;4995859;28;20995;-67
2022/02/17 03:15:26;;;;;;;0.50;0.40;;;10.50;99.90;;;;;;4999585;28;20438;-66
2022/02/17 03:17:52;;;;;;;0.50;0.40;;;10.50;99.90;;;;;;5009858;28;20513;-66
2022/02/17 03:20:19;;;;;;;0.63;0.40;;;10.50;99.90;;;;;;4999062;28;20438;-66
2022/02/17 03:22:44;;;;;;;0.70;0.50;;;10.50;99.90;;;;;;5002748;28;20437;-66
2022/02/17 03:25:12;;;;;;;0.50;0.40;;;10.50;99.90;;;;;;4996402;28;20450;-66
2022/02/17 03:27:38;;;;;;;0.60;0.53;;;10.50;99.90;;;;;;4997867;28;20183;-66
2022/02/17 03:30:07;;;;;;;0.73;0.50;;;10.50;99.90;;;;;;5009109;28;20427;-66
2022/02/17 03:32:34;;;;;;;0.50;0.40;;;10.50;99.90;;;;;;5012441;28;20468;-66
2022/02/17 03:35:00;;;;;;;0.80;0.50;;;10.50;99.90;;;;;;4999287;28;20450;-66
2022/02/17 03:37:26;;;;;;;0.97;0.60;;;10.50;99.90;;;;;;4994752;28;20767;-66
2022/02/17 03:39:51;;;;;;;1.00;0.40;;;10.50;99.90;;;;;;5006576;28;20175;-67
2022/02/17 03:42:17;;;;;;;0.73;0.50;;;10.50;99.90;;;;;;4998815;28;20210;-67
2022/02/17 03:44:42;;;;;;;3.30;0.40;;;10.50;99.90;;;;;;4996994;28;20195;-66
2022/02/17 03:47:08;;;;;;;0.90;0.60;;;10.50;99.90;;;;;;5006676;28;20186;-66
2022/02/17 03:49:34;;;;;;;0.40;0.40;;;10.50;99.90;;;;;;4997502;28;20188;-66
2022/02/17 03:51:59;;;;;;;0.50;0.40;;;10.40;99.90;;;;;;4996321;28;20184;-66
2022/02/17 03:54:25;;;;;;;1.00;0.40;;;10.40;99.90;;;;;;4994391;28;20207;-67
2022/02/17 03:56:50;;;;;;;0.73;0.40;;;10.40;99.90;;;;;;4994178;28;20192;-66
2022/02/17 03:59:16;;;;;;;1.33;0.50;;;10.40;99.90;;;;;;4994742;28;20183;-66
2022/02/17 04:01:42;;;;;;;0.63;0.50;;;10.40;99.90;;;;;;5002416;28;20656;-66
2022/02/17 04:04:10;;;;;;;0.87;0.57;;;10.40;99.90;;;;;;5002195;28;20202;-66
2022/02/17 04:06:36;;;;;;;0.93;0.47;;;10.40;99.90;;;;;;5003993;28;20466;-67
2022/02/17 04:09:04;;;;;;;1.27;0.40;;;10.40;99.90;;;;;;4996479;28;20442;-67
2022/02/17 04:11:29;;;;;;;1.50;0.60;;;10.50;99.90;;;;;;4996944;28;20438;-66
2022/02/17 04:13:55;;;;;;;0.50;0.50;;;10.50;99.90;;;;;;5000165;28;20553;-66
2022/02/17 04:16:21;;;;;;;0.50;0.40;;;10.60;99.90;;;;;;5003284;28;20206;-67
2022/02/17 04:18:47;;;;;;;1.07;0.50;;;10.60;99.90;;;;;;5003390;28;20274;-66
2022/02/17 04:21:14;;;;;;;5.03;0.60;;;10.60;99.90;;;;;;4996260;28;20657;-66
2022/02/17 04:23:44;;;;;;;0.60;0.60;;;10.60;99.90;;;;;;5002707;28;20473;-66
2022/02/17 04:26:14;;;;;;;2.10;0.60;;;10.60;99.90;;;;;;5002621;28;20442;-65
2022/02/17 04:28:41;;;;;;;0.97;0.40;;;10.60;99.90;;;;;;4999084;28;20919;-66
2022/02/17 04:31:06;;;;;;;0.80;0.50;;;10.70;99.90;;;;;;5009090;28;20442;-66
2022/02/17 04:33:36;;;;;;;0.50;0.50;;;10.80;99.90;;;;;;5001720;28;20458;-66
2022/02/17 04:36:02;;;;;;;0.60;0.40;;;10.70;99.90;;;;;;5005373;28;20262;-66
2022/02/17 04:38:28;;;;;;;0.57;0.50;;;10.70;99.90;;;;;;4995006;28;20446;-66
2022/02/17 04:43:39;;;;;;;0.50;0.43;;;10.60;99.90;;;;;;4999137;28;20465;-66
2022/02/17 04:46:05;;;;;;;2.80;0.80;;;10.60;99.90;;;;;;5008436;28;20446;-65
2022/02/17 04:48:31;;;;;;;0.50;0.43;;;10.60;99.90;;;;;;4999883;28;20195;-65
2022/02/17 04:50:56;;;;;;;0.70;0.40;;;10.70;99.90;;;;;;4994869;28;20439;-66
2022/02/17 04:53:22;;;;;;;0.60;0.50;;;10.80;99.90;;;;;;4993531;28;20462;-66
2022/02/17 04:55:48;;;;;;;1.57;0.67;;;10.70;99.90;;;;;;4998542;28;20644;-65
2022/02/17 04:58:14;;;;;;;0.90;0.50;;;10.70;99.90;;;;;;5000808;28;20488;-66
2022/02/17 05:00:39;;;;;;;0.67;0.57;;;10.70;99.90;;;;;;4993595;28;20231;-66
2022/02/17 05:03:05;;;;;;;1.03;0.50;;;10.70;99.90;;;;;;5001184;28;20226;-65
2022/02/17 05:05:30;;;;;;;0.50;0.40;;;10.70;99.90;;;;;;4997884;28;20222;-66
2022/02/17 05:07:56;;;;;;;1.43;0.40;;;10.70;99.90;;;;;;4994558;28;20214;-65
2022/02/17 05:10:21;;;;;;;1.03;0.67;;;10.70;99.90;;;;;;4994535;28;20176;-65
2022/02/17 05:12:47;;;;;;;0.63;0.50;;;10.70;99.90;;;;;;5008290;28;20640;-65
2022/02/17 05:15:13;;;;;;;1.10;0.80;;;10.80;99.90;;;;;;5009830;28;20245;-65
2022/02/17 05:17:38;;;;;;;0.80;0.80;;;10.70;99.90;;;;;;5011087;28;20218;-66
2022/02/17 05:20:05;;;;;;;0.90;0.80;;;10.70;99.90;;;;;;5004845;28;20171;-66
2022/02/17 05:22:31;;;;;;;0.93;0.80;;;10.70;99.90;;;;;;4994496;28;20673;-65
2022/02/17 05:24:57;;;;;;;4.00;0.73;;;10.70;99.90;;;;;;5001892;28;20490;-66
2022/02/17 05:27:22;;;;;;;1.53;0.50;;;10.70;99.90;;;;;;5005102;28;20175;-66
2022/02/17 05:29:48;;;;;;;0.70;0.53;;;10.70;99.90;;;;;;4996361;28;20181;-66
2022/02/17 05:32:13;;;;;;;0.60;0.53;;;10.70;99.90;;;;;;4992624;28;20176;-65
2022/02/17 05:34:39;;;;;;;1.80;1.53;;;10.70;99.90;;;;;;5000796;28;20222;-65
2022/02/17 05:37:05;;;;;;;2.40;0.67;;;10.70;99.90;;;;;;4995721;28;20190;-65
2022/02/17 05:39:30;;;;;;;0.80;0.50;;;10.70;99.90;;;;;;4999101;28;20719;-65
2022/02/17 05:41:56;;;;;;;0.80;0.60;;;10.80;99.90;;;;;;5005066;28;20201;-66
2022/02/17 05:44:21;;;;;;;1.03;0.50;;;10.80;99.90;;;;;;4999266;28;20241;-66
2022/02/17 05:46:47;;;;;;;0.60;0.40;;;10.80;99.90;;;;;;4994303;28;20565;-65
2022/02/17 05:49:13;;;;;;;0.73;0.73;;;10.80;99.90;;;;;;5005024;28;20640;-66
2022/02/17 05:51:38;;;;;;;1.73;0.70;;;10.80;99.90;;;;;;4998324;28;20194;-65
2022/02/17 05:54:04;;;;;;;0.77;0.77;;;10.80;99.90;;;;;;5007667;28;20454;-65
2022/02/17 05:56:29;;;;;;;0.60;0.50;;;10.80;99.90;;;;;;5000176;28;20194;-65
2022/02/17 05:58:55;;;;;;;0.83;0.70;;;10.80;99.90;;;;;;4987314;28;20695;-66
2022/02/17 06:01:20;;;;;;;2.80;1.03;;;10.70;99.90;;;;;;5000113;28;20195;-65
2022/02/17 06:03:46;;;;;;;2.30;1.10;;;10.70;99.90;;;;;;5001620;28;20199;-65
2022/02/17 06:06:11;;;;;;;2.00;0.87;;;10.70;99.90;;;;;;4999772;28;20217;-66
2022/02/17 06:08:37;;;;;;;1.20;0.70;;;10.70;99.90;;;;;;4992732;28;20211;-65
2022/02/17 06:11:02;;;;;;;1.00;0.80;;;10.60;99.90;;;;;;4999035;28;20269;-66
2022/02/17 06:13:28;;;;;;;1.53;1.00;;;10.50;99.90;;;;;;5000182;28;20207;-65
2022/02/17 06:15:53;;;;;;;2.40;1.27;;;10.60;99.90;;;;;;5002330;28;20529;-66
2022/02/17 06:18:19;;;;;;;3.27;1.30;;;10.50;99.90;;;;;;5011893;28;20186;-65
2022/02/17 06:20:44;;;;;;;1.60;1.37;;;10.50;99.90;;;;;;5003511;28;20199;-66
2022/02/17 06:23:10;;;;;;;4.77;1.37;;;10.40;99.90;;;;;;5005311;28;20183;-65
2022/02/17 06:25:36;;;;;;;2.77;1.23;;;10.40;99.90;;;;;;4999586;28;20179;-65
2022/02/17 06:28:03;;;;;;;3.17;2.07;;;10.40;99.90;;;;;;5010127;28;20178;-65
2022/02/17 06:30:29;;;;;;;3.67;1.10;;;10.40;99.90;;;;;;4997935;28;20633;-66
2022/02/17 06:32:56;;;;;;;7.40;1.50;;;10.40;99.90;;;;;;4994661;28;20521;-66
2022/02/17 06:35:25;;;;;;;3.70;1.63;;;10.40;99.90;;;;;;5010674;28;20180;-65
2022/02/17 06:37:52;;;;;;;2.23;1.37;;;10.40;99.90;;;;;;5005152;28;20432;-65
2022/02/17 06:40:20;;;;;;;3.87;1.10;;;10.40;99.90;;;;;;5015888;28;20453;-65
2022/02/17 06:42:46;;;;;;;4.27;1.60;;;10.40;99.90;;;;;;4999867;28;20522;-65
2022/02/17 06:45:12;;;;;;;4.80;1.40;;;10.40;99.90;;;;;;5001718;28;20549;-66
2022/02/17 06:47:38;;;;;;;2.90;1.37;;;10.40;99.90;;;;;;4994407;28;20948;-66
2022/02/17 06:50:05;;;;;;;2.97;1.70;;;10.50;99.90;;;;;;5007813;28;20432;-66
2022/02/17 06:52:32;;;;;;;2.67;1.60;;;10.50;99.90;;;;;;4999549;28;20638;-65
2022/02/17 06:54:57;;;;;;;4.47;1.83;;;10.50;99.90;;;;;;4994933;28;20472;-66
2022/02/17 06:57:23;;;;;;;5.20;1.77;;;10.50;99.90;;;;;;5010358;28;20433;-66
2022/02/17 06:59:51;;;;;;;7.47;1.83;;;10.60;99.90;;;;;;4998965;28;20541;-65
2022/02/17 07:02:26;;;;;;;8.90;2.50;;;10.60;99.90;;;;;;5007861;28;20203;-66
2022/02/17 07:04:52;;;;;;;5.13;2.00;;;10.60;99.90;;;;;;5009236;28;20457;-66
2022/02/17 07:07:19;;;;;;;5.13;2.00;;;10.60;99.90;;;;;;5003720;28;20437;-66
2022/02/17 07:09:46;;;;;;;5.43;1.90;;;10.60;99.90;;;;;;5001244;28;20434;-66
2022/02/17 07:12:12;;;;;;;5.83;1.53;;;10.60;99.90;;;;;;4998394;28;20977;-66
2022/02/17 07:14:38;;;;;;;10.30;4.50;;;10.70;99.90;;;;;;5006576;28;20963;-65
2022/02/17 07:17:04;;;;;;;4.80;2.20;;;10.70;99.90;;;;;;5000628;28;20441;-65
2022/02/17 07:19:30;;;;;;;10.50;4.47;;;10.70;99.90;;;;;;5000222;28;20793;-66
2022/02/17 07:21:55;;;;;;;3.40;1.50;;;10.70;99.90;;;;;;5005920;28;20461;-65
2022/02/17 07:24:22;;;;;;;12.73;2.67;;;10.50;99.90;;;;;;5007443;28;20202;-66
2022/02/17 07:26:48;;;;;;;6.00;2.17;;;10.50;99.90;;;;;;5003270;28;20206;-66
2022/02/17 07:29:15;;;;;;;9.03;2.03;;;10.40;99.90;;;;;;4998315;28;20927;-66
2022/02/17 07:31:41;;;;;;;5.27;2.53;;;10.40;99.90;;;;;;5002775;28;20426;-66
2022/02/17 07:34:07;;;;;;;7.13;2.30;;;10.50;99.90;;;;;;5000190;28;20480;-66
2022/02/17 07:36:34;;;;;;;7.00;2.10;;;10.60;99.90;;;;;;5001447;28;20438;-65
2022/02/17 07:39:00;;;;;;;4.87;2.57;;;10.70;99.90;;;;;;4999645;28;20429;-65
2022/02/17 07:41:26;;;;;;;3.50;1.20;;;10.90;99.90;;;;;;5004179;28;20552;-66
2022/02/17 07:43:52;;;;;;;8.77;1.87;;;11.00;99.90;;;;;;4998642;28;20537;-65
2022/02/17 07:46:17;;;;;;;5.50;1.53;;;11.00;99.90;;;;;;5008194;28;20167;-66
2022/02/17 07:48:44;;;;;;;3.23;1.53;;;11.00;99.90;;;;;;5006869;28;20187;-65
2022/02/17 07:51:10;;;;;;;1.93;1.57;;;11.00;99.90;;;;;;5010499;28;20225;-65
2022/02/17 07:53:36;;;;;;;5.77;1.73;;;11.00;99.90;;;;;;5004421;28;20470;-65
2022/02/17 07:56:02;;;;;;;2.93;1.30;;;11.00;99.90;;;;;;5002348;28;20875;-65
2022/02/17 07:58:28;;;;;;;3.40;1.10;;;11.20;99.90;;;;;;4995835;28;20676;-65
2022/02/17 08:00:53;;;;;;;6.23;1.73;;;11.40;99.90;;;;;;4983000;28;20219;-65
2022/02/17 08:03:19;;;;;;;7.90;2.67;;;11.40;99.90;;;;;;4966552;28;20617;-65
2022/02/17 08:05:45;;;;;;;6.67;1.60;;;11.50;99.90;;;;;;4994683;28;20203;-65
2022/02/17 08:08:12;;;;;;;4.13;1.80;;;11.50;99.90;;;;;;4997913;28;20230;-65
2022/02/17 08:10:38;;;;;;;5.27;1.80;;;11.80;99.90;;;;;;4994843;28;20446;-65
2022/02/17 08:13:05;;;;;;;8.00;2.30;;;12.20;99.90;;;;;;4995134;28;20470;-65
2022/02/17 08:15:31;;;;;;;5.53;2.00;;;12.40;99.90;;;;;;4997283;28;20517;-65
2022/02/17 08:17:57;;;;;;;8.00;2.27;;;12.70;99.90;;;;;;5000442;28;20447;-65
2022/02/17 08:20:23;;;;;;;8.43;3.67;;;12.90;99.90;;;;;;5004074;28;21212;-66
2022/02/17 08:22:49;;;;;;;4.97;2.07;;;13.20;99.90;;;;;;4994104;28;20191;-65
2022/02/17 08:25:16;;;;;;;5.30;2.40;;;13.40;99.90;;;;;;5014117;28;20450;-66
2022/02/17 08:27:41;;;;;;;6.50;2.20;;;13.40;99.90;;;;;;5003244;28;20485;-65
2022/02/17 08:30:07;;;;;;;6.13;1.77;;;13.50;99.90;;;;;;4996714;28;20434;-66
2022/02/17 08:32:37;;;;;;;7.97;2.60;;;13.60;99.90;;;;;;4992596;28;20195;-66
2022/02/17 08:35:04;;;;;;;4.90;1.80;;;14.20;99.90;;;;;;4999179;28;20480;-66
2022/02/17 08:37:30;;;;;;;6.30;2.50;;;14.40;99.90;;;;;;5001268;28;20956;-66
2022/02/17 08:39:55;;;;;;;7.30;3.00;;;14.40;99.90;;;;;;5004734;28;20441;-66
2022/02/17 08:42:21;;;;;;;8.30;2.73;;;14.30;99.90;;;;;;4991017;28;20239;-66
2022/02/17 08:44:46;;;;;;;14.87;3.07;;;14.60;99.90;;;;;;5001645;28;20205;-66
2022/02/17 08:47:14;;;;;;;10.10;3.10;;;15.10;99.90;;;;;;4997101;28;20198;-66
2022/02/17 08:49:39;;;;;;;4.43;2.00;;;15.30;99.90;;;;;;4993591;28;20383;-66
2022/02/17 08:52:05;;;;;;;6.17;2.50;;;16.10;99.90;;;;;;4997567;28;20434;-66
2022/02/17 08:54:31;;;;;;;10.00;2.40;;;16.20;99.90;;;;;;5001924;28;20207;-66
2022/02/17 08:56:56;;;;;;;5.97;2.23;;;16.10;99.90;;;;;;4999185;28;20660;-66
2022/02/17 08:59:22;;;;;;;6.27;2.40;;;15.90;99.90;;;;;;5000622;28;20613;-66
2022/02/17 09:01:47;;;;;;;7.00;2.83;;;15.50;99.90;;;;;;4991980;28;20203;-66
2022/02/17 09:04:13;;;;;;;3.67;2.20;;;15.80;99.90;;;;;;4995297;28;20200;-66
2022/02/17 09:06:39;;;;;;;9.50;2.30;;;16.00;99.90;;;;;;4996004;28;20214;-66
2022/02/17 09:09:04;;;;;;;6.50;2.70;;;16.30;99.90;;;;;;5006309;28;20183;-66
2022/02/17 09:11:30;;;;;;;6.27;2.40;;;16.50;99.90;;;;;;4990892;28;20183;-65
2022/02/17 09:13:56;;;;;;;7.77;2.87;;;16.50;99.90;;;;;;4995319;28;20662;-66
2022/02/17 09:16:21;;;;;;;10.93;3.20;;;16.50;99.20;;;;;;5008169;28;20624;-66
2022/02/17 09:18:47;;;;;;;4.03;2.70;;;16.50;98.80;;;;;;4996293;28;20448;-66
2022/02/17 09:21:14;;;;;;;4.23;2.37;;;16.20;96.90;;;;;;5000882;28;20211;-66
2022/02/17 09:23:40;;;;;;;8.20;2.50;;;16.20;96.70;;;;;;5003834;28;20664;-66
2022/02/17 09:26:07;;;;;;;4.57;2.70;;;16.40;95.40;;;;;;4997386;28;20427;-66
2022/02/17 09:28:33;;;;;;;7.53;2.80;;;16.50;94.30;;;;;;5001227;28;20663;-66
2022/02/17 09:30:58;;;;;;;7.80;2.50;;;16.80;93.00;;;;;;4991676;28;20442;-66
2022/02/17 09:33:24;;;;;;;14.57;3.40;;;17.20;92.20;;;;;;5000212;28;20229;-66
2022/02/17 09:35:49;;;;;;;11.50;3.37;;;17.60;90.10;;;;;;5000283;28;20191;-66
2022/02/17 09:38:15;;;;;;;6.60;2.87;;;17.40;89.60;;;;;;5006145;28;20179;-66
2022/02/17 09:40:42;;;;;;;12.03;3.23;;;17.80;88.50;;;;;;5002567;28;20208;-65
2022/02/17 09:43:08;;;;;;;7.97;3.97;;;17.30;88.00;;;;;;4993343;28;20437;-65
2022/02/17 09:45:36;;;;;;;4.13;3.00;;;17.20;87.40;;;;;;4997386;28;20577;-65
2022/02/17 09:48:04;;;;;;;13.90;3.13;;;16.60;87.30;;;;;;4995614;28;20450;-65
2022/02/17 09:50:30;;;;;;;9.17;3.30;;;15.60;89.90;;;;;;4997027;28;20429;-65
2022/02/17 09:52:57;;;;;;;12.00;4.13;;;14.60;91.10;;;;;;4992390;28;20437;-65
2022/02/17 09:55:23;;;;;;;11.00;3.77;;;13.90;93.00;;;;;;4997482;28;20466;-65
2022/02/17 09:57:48;;;;;;;10.50;3.10;;;13.40;94.40;;;;;;4995023;28;20956;-65
2022/02/17 10:00:14;;;;;;;9.00;3.30;;;13.20;95.50;;;;;;4996366;28;20210;-65
2022/02/17 10:02:40;;;;;;;12.07;3.10;;;13.30;96.50;;;;;;4999239;28;20250;-65
2022/02/17 10:05:07;;;;;;;5.67;3.00;;;13.50;97.30;;;;;;5007559;28;20233;-65
2022/02/17 10:07:42;;;;;;;12.03;4.00;;;14.70;97.40;;;;;;4994785;28;20457;-65
2022/02/17 10:10:14;;;;;;;7.90;3.37;;;15.70;96.40;;;;;;4996680;28;20430;-65
2022/02/17 10:13:04;;;;;;;7.40;2.60;;;16.10;96.00;;;;;;4991355;28;20521;-65
2022/02/17 10:15:35;;;;;;;8.13;2.87;;;16.10;95.90;;;;;;4992526;28;20447;-65
2022/02/17 10:18:16;;;;;;;8.60;3.13;;;16.20;95.50;;;;;;4997451;28;20443;-65
2022/02/17 10:21:06;;;;;;;8.27;5.00;;;15.00;96.50;;;;;;5004205;28;21041;-65
2022/02/17 10:23:36;;;;;;;8.07;3.00;;;14.30;99.50;;;;;;5024974;28;21164;-64
2022/02/17 10:26:23;;;;;;;8.17;3.40;;;14.80;98.50;;;;;;4989238;28;20431;-66
2022/02/17 10:28:58;;;;;;;9.63;3.30;;;15.50;96.70;;;;;;4996534;28;20871;-67
2022/02/17 10:31:26;;;;;;;11.60;3.70;;;15.60;96.50;;;;;;4995833;28;20434;-65
2022/02/17 10:33:54;;;;;;;10.63;3.77;;;15.70;96.00;;;;;;4999182;28;20454;-66
2022/02/17 10:36:46;;;;;;;7.97;3.10;;;15.40;98.40;;;;;;5005454;28;20441;-66
2022/02/17 10:39:22;;;;;;;6.33;3.30;;;15.70;96.60;;;;;;4986704;28;20462;-66
2022/02/17 10:41:47;;;;;;;10.20;3.43;;;15.10;97.10;;;;;;4989993;28;20462;-65
2022/02/17 10:44:13;;;;;;;9.33;4.13;;;14.40;98.20;;;;;;5001846;28;20450;-65
2022/02/17 10:46:39;;;;;;;11.03;2.60;;;13.90;99.60;;;;;;4995399;28;20190;-66
2022/02/17 10:49:19;;;;;;;6.70;2.73;;;13.60;99.90;;;;;;4996798;28;20238;-66
2022/02/17 10:51:46;;;;;;;11.30;3.87;;;14.40;99.90;;;;;;4993071;28;20177;-65
2022/02/17 10:54:12;;;;;;;7.50;3.10;;;15.20;98.60;;;;;;4994947;28;20454;-66
2022/02/17 10:56:41;;;;;;;6.27;3.00;;;15.60;98.00;;;;;;5006956;28;20426;-66
2022/02/17 11:00:00;;;;;;;7.50;3.70;;;16.30;96.20;;;;;;5004227;28;20431;-66
2022/02/17 11:01:55;;;;;;;7.80;2.70;;;17.70;94.80;;;;;;4986913;28;20464;-66
2022/02/17 11:04:21;;;;;;;7.73;3.03;;;18.90;91.00;;;;;;4998102;28;20967;-66
2022/02/17 11:06:48;;;;;;;6.60;2.63;;;18.80;90.30;;;;;;4997400;28;20438;-67
2022/02/17 11:09:13;;;;;;;10.20;2.80;;;17.90;88.80;;;;;;4999868;28;20285;-66
2022/02/17 11:11:40;;;;;;;5.10;2.70;;;17.50;89.10;;;;;;4989868;28;20446;-65
2022/02/17 11:14:05;;;;;;;7.37;3.20;;;18.30;86.90;;;;;;4999999;28;20282;-65
2022/02/17 11:16:32;;;;;;;6.27;2.87;;;18.60;82.40;;;;;;4999934;28;20593;-65
2022/02/17 11:18:58;;;;;;;8.03;3.13;;;18.50;82.60;;;;;;4996076;28;20187;-65
2022/02/17 11:21:25;;;;;;;7.20;2.87;;;19.20;80.90;;;;;;4998303;28;20461;-64
2022/02/17 11:23:57;;;;;;;5.27;3.40;;;19.60;79.50;;;;;;5003990;28;20783;-63
2022/02/17 11:26:32;;;;;;;12.97;4.00;;;19.80;73.70;;;;;;5012021;28;20421;-66
2022/02/17 11:29:23;;;;;;;7.40;3.50;;;19.60;74.20;;;;;;4990245;28;20516;-65
2022/02/17 11:32:01;;;;;;;7.60;3.13;;;17.00;75.50;;;;;;4997426;28;20434;-65
2022/02/17 11:35:02;;;;;;;14.47;3.53;;;15.60;81.00;;;;;;5007435;28;20469;-64
2022/02/17 11:37:31;;;;;;;6.60;3.10;;;15.00;84.50;;;;;;4952473;29;20440;-65
2022/02/17 11:40:09;;;;;;;12.80;3.47;;;14.90;84.80;;;;;;4999470;28;20447;-66
2022/02/17 11:42:37;;;;;;;12.17;5.87;;;15.00;86.40;;;;;;4999617;28;20998;-63
2022/02/17 11:45:10;;;;;;;10.50;3.60;;;14.80;87.00;;;;;;5000591;28;20465;-64
2022/02/17 11:48:07;;;;;;;12.43;3.53;;;14.20;89.50;;;;;;4996772;28;20446;-66
2022/02/17 11:50:49;;;;;;;13.73;4.17;;;14.90;88.50;;;;;;5002900;28;20462;-66
2022/02/17 11:53:28;;;;;;;6.57;3.43;;;16.60;83.50;;;;;;4997533;28;20454;-66
2022/02/17 11:56:06;;;;;;;12.20;3.57;;;17.10;81.60;;;;;;5002101;28;20426;-66
2022/02/17 11:58:41;;;;;;;9.93;3.43;;;18.30;76.30;;;;;;5001830;28;20429;-67
2022/02/17 12:01:33;;;;;;;10.23;3.83;;;18.10;75.30;;;;;;4989566;28;20457;-63
2022/02/17 12:04:31;;;;;;;13.17;4.90;;;19.50;74.90;;;;;;4997249;28;20450;-62
2022/02/17 12:07:04;;;;;;;8.00;3.20;;;20.60;69.20;;;;;;5000083;28;20524;-62
2022/02/17 12:09:30;;;;;;;13.50;4.40;;;20.30;69.60;;;;;;4994468;28;20431;-62
2022/02/17 12:11:55;;;;;;;10.43;4.50;;;20.50;68.20;;;;;;4990785;28;20437;-62
2022/02/17 12:14:21;;;;;;;11.33;3.97;;;19.20;68.70;;;;;;4997847;28;20194;-62
2022/02/17 12:16:51;;;;;;;12.20;4.00;;;18.70;72.60;;;;;;4994454;28;20238;-62
2022/02/17 12:19:18;;;;;;;11.77;4.23;;;18.90;72.70;;;;;;4995412;28;20175;-63
2022/02/17 12:21:46;;;;;;;16.63;5.33;;;18.60;72.60;;;;;;4991597;28;20455;-61
2022/02/17 12:24:15;;;;;;;9.57;4.50;;;18.90;73.40;;;;;;4997204;28;20626;-63
2022/02/17 12:26:47;;;;;;;11.10;4.30;;;20.00;72.80;;;;;;4995026;28;20772;-63
2022/02/17 12:29:26;;;;;;;14.97;3.93;;;20.70;66.80;;;;;;5000981;28;20430;-63
2022/02/17 12:31:53;;;;;;;9.80;3.63;;;20.40;66.60;;;;;;4993600;28;20495;-63
2022/02/17 12:34:18;;;;;;;13.80;5.17;;;20.20;67.20;;;;;;4996625;28;20966;-63
2022/02/17 12:36:44;;;;;;;13.40;4.83;;;20.80;65.50;;;;;;5002899;28;20442;-63
2022/02/17 12:39:10;;;;;;;11.77;4.53;;;21.90;64.00;;;;;;5005678;28;20175;-63
2022/02/17 12:41:35;;;;;;;17.63;5.37;;;20.90;62.20;;;;;;4991855;28;20466;-63
2022/02/17 12:44:01;;;;;;;11.87;4.40;;;20.70;63.30;;;;;;5006162;28;20309;-64
2022/02/17 12:46:27;;;;;;;10.30;4.20;;;21.50;62.70;;;;;;5004430;28;20250;-63
2022/02/17 12:48:53;;;;;;;9.60;3.93;;;22.40;59.50;;;;;;5006069;28;20269;-66